Time;durP1;ratioP1;P1;durP2;ratioP2;P2;SDS_P1;SDS_P2;PMS_P1;PMS_P2;Temp;Humidity;BMP_temperature;BMP_pressure;BME280_temperature;BME280_humidity;BME280_pressure;Samples;Min_cycle;Max_cycle;Signal;HPM_P1;HPM_P2
2022/08/09 00:02:22;;;;;;;8.40;3.50;;;;;;;19.37;67.03;102726.22;4950256;29;20024;-65
2022/08/09 00:04:47;;;;;;;5.28;3.47;;;;;;;19.35;66.48;102727.91;4950414;28;20393;-65
2022/08/09 00:07:13;;;;;;;5.65;3.50;;;;;;;19.28;66.88;102733.84;4947020;28;20034;-66
2022/08/09 00:09:38;;;;;;;5.07;3.28;;;;;;;19.31;66.84;102727.81;4944105;28;20034;-65
2022/08/09 00:12:04;;;;;;;7.10;3.13;;;;;;;19.25;66.65;102728.56;4946410;28;20070;-65
2022/08/09 00:14:30;;;;;;;5.57;2.95;;;;;;;19.25;66.36;102729.44;4951322;28;20027;-65
2022/08/09 00:16:56;;;;;;;5.72;2.95;;;;;;;19.17;66.79;102724.91;4944847;28;20531;-65
2022/08/09 00:19:21;;;;;;;7.45;3.10;;;;;;;19.21;66.57;102722.41;4944008;29;20039;-65
2022/08/09 00:21:47;;;;;;;5.78;3.17;;;;;;;19.13;66.83;102723.97;4940417;28;20110;-65
2022/08/09 00:24:12;;;;;;;4.65;2.75;;;;;;;19.12;66.60;102732.63;4945905;28;20090;-65
2022/08/09 00:26:37;;;;;;;6.72;2.67;;;;;;;19.09;66.85;102722.13;4951124;28;20035;-65
2022/08/09 00:29:03;;;;;;;5.53;2.90;;;;;;;19.09;66.97;102721.25;4950166;28;20043;-65
2022/08/09 00:31:30;;;;;;;4.15;2.80;;;;;;;19.06;67.06;102719.47;4951067;28;20028;-65
2022/08/09 00:33:55;;;;;;;5.38;2.70;;;;;;;18.99;66.89;102705.41;4947915;28;20046;-65
2022/08/09 00:36:23;;;;;;;7.40;3.08;;;;;;;19.05;66.87;102719.41;4951020;28;20031;-65
2022/08/09 00:38:48;;;;;;;5.55;2.70;;;;;;;19.06;66.84;102718.59;4948136;28;20039;-64
2022/08/09 00:41:14;;;;;;;6.35;2.60;;;;;;;19.05;66.84;102719.41;4946963;28;20162;-65
2022/08/09 00:43:41;;;;;;;4.85;2.70;;;;;;;19.07;66.51;102718.63;4969601;28;20052;-67
2022/08/09 00:46:08;;;;;;;6.97;2.83;;;;;;;19.06;66.74;102719.47;4947557;28;20038;-66
2022/08/09 00:48:34;;;;;;;7.35;2.70;;;;;;;19.10;66.39;102720.41;4950380;28;20024;-65
2022/08/09 00:51:06;;;;;;;7.47;2.60;;;;;;;19.05;66.52;102722.91;4947533;29;20057;-65
2022/08/09 00:53:34;;;;;;;6.20;2.70;;;;;;;19.01;66.79;102715.88;4948293;28;20481;-65
2022/08/09 00:55:59;;;;;;;3.65;2.90;;;;;;;19.06;66.07;102722.06;4949101;28;20030;-65
2022/08/09 00:58:24;;;;;;;3.35;2.97;;;;;;;19.05;66.59;102722.91;4948082;28;20125;-65
2022/08/09 01:00:53;;;;;;;4.75;2.88;;;;;;;18.95;66.97;102720.94;4948927;28;20028;-65
2022/08/09 01:03:47;;;;;;;6.50;3.08;;;;;;;19.08;66.29;102728.19;4950691;28;20061;-65
2022/08/09 01:06:35;;;;;;;4.65;3.13;;;;;;;19.01;66.15;102729.78;4949804;29;20116;-65
2022/08/09 01:09:17;;;;;;;7.63;3.17;;;;;;;19.02;66.60;102736.75;4946604;28;20031;-65
2022/08/09 01:11:49;;;;;;;5.97;2.85;;;;;;;18.96;66.73;102739.22;4949402;28;20035;-65
2022/08/09 01:14:32;;;;;;;3.85;2.83;;;;;;;18.95;66.58;102731.38;4948798;28;20027;-65
2022/08/09 01:17:07;;;;;;;6.05;3.33;;;;;;;18.86;66.87;102726.81;4945447;29;20027;-65
2022/08/09 01:19:39;;;;;;;5.88;3.28;;;;;;;18.84;67.12;102727.63;4948610;28;20023;-65
2022/08/09 01:22:43;;;;;;;6.30;3.22;;;;;;;18.86;66.84;102731.13;4946833;28;20023;-65
2022/08/09 01:25:20;;;;;;;4.72;2.90;;;;;;;18.76;67.26;102730.06;4947453;29;20031;-65
2022/08/09 01:27:51;;;;;;;6.40;3.40;;;;;;;18.73;67.39;102733.44;4901401;28;1258556;-64
2022/08/09 01:30:18;;;;;;;4.25;2.85;;;;;;;18.71;67.62;102724.72;4945018;28;20026;-65
2022/08/09 01:32:46;;;;;;;6.05;3.05;;;;;;;18.70;67.63;102728.19;4945888;28;20019;-65
2022/08/09 01:35:21;;;;;;;6.25;3.30;;;;;;;18.70;67.21;102722.09;4949655;29;20398;-65
2022/08/09 01:37:49;;;;;;;5.97;3.00;;;;;;;18.61;67.62;102727.91;4941302;28;20024;-64
2022/08/09 01:40:17;;;;;;;6.50;2.95;;;;;;;18.62;67.88;102727.06;4946963;28;20035;-65
2022/08/09 01:42:43;;;;;;;8.52;3.50;;;;;;;18.58;68.13;102726.97;4952426;28;20080;-65
2022/08/09 01:45:10;;;;;;;6.43;3.60;;;;;;;18.53;67.96;102720.75;4948854;28;20450;-65
2022/08/09 01:47:37;;;;;;;5.72;3.67;;;;;;;18.55;67.99;102724.28;4958179;28;20044;-65
2022/08/09 01:50:03;;;;;;;4.90;3.40;;;;;;;18.46;68.20;102720.59;4947843;28;20016;-65
2022/08/09 01:52:29;;;;;;;6.97;3.92;;;;;;;18.43;68.31;102722.25;4949269;28;20650;-65
2022/08/09 01:54:57;;;;;;;4.30;3.13;;;;;;;18.48;68.50;102718.91;4949960;28;20061;-65
2022/08/09 01:57:36;;;;;;;5.18;3.28;;;;;;;18.53;67.83;102728.56;4947118;28;20490;-65
2022/08/09 02:00:02;;;;;;;;;;;;;;;18.70;66.70;102725.56;4942799;28;20035;-65
2022/08/09 02:02:32;;;;;;;5.47;3.03;;;;;;;18.42;68.60;102725.69;4949452;28;19915;-65
2022/08/09 02:05:01;;;;;;;6.32;3.25;;;;;;;18.43;68.34;102725.72;4950477;28;20026;-64
2022/08/09 02:07:28;;;;;;;7.18;3.10;;;;;;;18.37;68.74;102728.19;4954759;28;20429;-64
2022/08/09 02:10:01;;;;;;;6.78;3.53;;;;;;;18.41;68.63;102734.34;4948782;28;20023;-64
2022/08/09 02:12:27;;;;;;;7.80;3.60;;;;;;;18.34;68.31;102735.94;4946979;28;20035;-64
2022/08/09 02:14:55;;;;;;;6.07;3.15;;;;;;;18.32;68.92;102731.50;4946717;28;20111;-64
2022/08/09 02:17:25;;;;;;;8.60;4.05;;;;;;;18.25;69.14;102727.84;4945510;28;20039;-64
2022/08/09 02:19:50;;;;;;;9.32;3.50;;;;;;;18.26;69.13;102723.53;4943193;28;20036;-64
2022/08/09 02:22:29;;;;;;;8.25;3.60;;;;;;;18.30;68.83;102733.19;4947663;28;20059;-64
2022/08/09 02:24:57;;;;;;;6.25;3.38;;;;;;;18.19;69.43;102723.38;4950162;28;20040;-65
2022/08/09 02:27:26;;;;;;;7.32;3.30;;;;;;;18.18;69.18;102732.03;4946558;28;20047;-65
2022/08/09 02:29:54;;;;;;;5.57;3.20;;;;;;;18.18;69.26;102725.94;4946461;28;20044;-65
2022/08/09 02:32:23;;;;;;;6.97;3.53;;;;;;;18.16;69.34;102730.25;4946866;28;20027;-65
2022/08/09 02:34:54;;;;;;;6.97;3.50;;;;;;;18.12;69.43;102724.06;4949361;28;20020;-65
2022/08/09 02:37:24;;;;;;;6.57;3.90;;;;;;;18.10;70.28;102725.75;4949846;28;20038;-65
2022/08/09 02:39:56;;;;;;;6.25;3.97;;;;;;;18.09;69.90;102721.38;4946988;28;20031;-65
2022/08/09 02:42:29;;;;;;;4.45;3.60;;;;;;;18.06;70.06;102717.81;4948734;28;20027;-65
2022/08/09 02:45:00;;;;;;;5.75;3.67;;;;;;;18.06;70.12;102718.69;4946851;28;20055;-64
2022/08/09 02:47:29;;;;;;;9.55;4.20;;;;;;;18.00;70.06;102710.72;4952248;28;20041;-65
2022/08/09 02:49:59;;;;;;;6.20;3.72;;;;;;;17.98;70.44;102714.13;4953448;28;20114;-64
2022/08/09 02:52:35;;;;;;;5.82;3.85;;;;;;;17.97;69.94;102714.97;4950653;28;20031;-64
2022/08/09 02:55:01;;;;;;;7.93;3.80;;;;;;;17.91;70.47;102713.09;4949973;28;20023;-65
2022/08/09 02:57:29;;;;;;;7.47;3.90;;;;;;;17.89;70.85;102719.94;4955562;28;20042;-66
2022/08/09 02:59:56;;;;;;;5.70;3.88;;;;;;;17.86;70.87;102712.94;4949918;28;20011;-65
2022/08/09 03:02:22;;;;;;;5.72;3.75;;;;;;;17.88;70.72;102729.47;4952858;28;20173;-65
2022/08/09 03:04:49;;;;;;;6.47;4.07;;;;;;;17.86;70.72;102725.97;4949543;28;20043;-65
2022/08/09 03:07:17;;;;;;;5.10;3.58;;;;;;;17.81;70.88;102711.94;4950249;28;20118;-64
2022/08/09 03:09:44;;;;;;;7.03;3.92;;;;;;;17.84;70.85;102717.25;4951838;28;20028;-65
2022/08/09 03:12:11;;;;;;;5.90;3.85;;;;;;;17.82;70.85;102721.50;4953826;28;20023;-64
2022/08/09 03:14:39;;;;;;;6.45;4.07;;;;;;;17.69;71.26;102712.44;4951305;28;20023;-65
2022/08/09 03:17:05;;;;;;;6.33;4.40;;;;;;;17.74;71.22;102717.81;4948969;28;20098;-65
2022/08/09 03:19:32;;;;;;;6.10;4.25;;;;;;;17.68;71.44;102720.22;4950057;28;20370;-66
2022/08/09 03:21:58;;;;;;;7.35;4.13;;;;;;;17.73;71.44;102716.06;4942743;28;20085;-65
2022/08/09 03:24:24;;;;;;;7.50;4.38;;;;;;;17.77;71.48;102719.59;4945850;28;20118;-65
2022/08/09 03:26:51;;;;;;;6.90;4.18;;;;;;;17.73;71.51;102720.38;4954395;28;20122;-65
2022/08/09 03:29:16;;;;;;;7.55;4.25;;;;;;;17.73;71.52;102725.59;4950181;28;20066;-66
2022/08/09 03:31:43;;;;;;;7.30;3.95;;;;;;;17.74;71.18;102723.03;4950091;28;20061;-66
2022/08/09 03:34:10;;;;;;;9.38;4.18;;;;;;;17.69;71.87;102730.66;4952073;28;20110;-65
2022/08/09 03:36:35;;;;;;;6.57;4.63;;;;;;;17.66;71.70;102724.50;4950880;28;20050;-65
2022/08/09 03:39:02;;;;;;;6.13;4.00;;;;;;;17.64;71.66;102719.22;4947746;29;20035;-66
2022/08/09 03:41:28;;;;;;;8.13;4.60;;;;;;;17.59;72.11;102726.00;4951570;28;20106;-65
2022/08/09 03:43:54;;;;;;;7.07;4.47;;;;;;;17.58;72.09;102732.06;4958832;28;20029;-65
2022/08/09 03:46:19;;;;;;;6.03;4.57;;;;;;;17.60;71.79;102733.00;4951351;28;20042;-66
2022/08/09 03:48:48;;;;;;;5.85;4.40;;;;;;;17.61;71.97;102723.47;4940997;29;20371;-65
2022/08/09 03:51:13;;;;;;;6.82;4.70;;;;;;;17.57;72.05;102726.81;4940896;28;20058;-65
2022/08/09 03:53:40;;;;;;;6.53;4.50;;;;;;;17.55;72.25;102723.31;4947641;28;20067;-65
2022/08/09 03:56:06;;;;;;;8.20;4.68;;;;;;;17.48;72.36;102726.56;4947930;28;20375;-65
2022/08/09 03:58:32;;;;;;;5.15;4.20;;;;;;;17.45;72.38;102727.34;4965150;28;20632;-66
2022/08/09 04:00:58;;;;;;;8.27;4.50;;;;;;;17.46;72.38;102725.63;4949619;28;20051;-65
2022/08/09 04:03:25;;;;;;;7.72;4.50;;;;;;;17.49;72.33;102729.22;4947807;29;20058;-65
2022/08/09 04:05:50;;;;;;;6.97;4.50;;;;;;;17.50;72.38;102724.88;4944474;29;20035;-65
2022/08/09 04:08:16;;;;;;;6.18;4.53;;;;;;;17.42;72.34;102720.34;4951499;28;20038;-66
2022/08/09 04:10:41;;;;;;;5.70;4.32;;;;;;;17.44;72.51;102715.19;4949814;29;20097;-66
2022/08/09 04:13:10;;;;;;;6.50;4.80;;;;;;;17.42;72.46;102720.34;4950434;28;20122;-65
2022/08/09 04:15:36;;;;;;;7.63;5.18;;;;;;;17.35;72.74;102715.81;4949624;28;20057;-66
2022/08/09 04:18:03;;;;;;;10.23;4.80;;;;;;;17.36;73.05;102724.50;4948857;28;20059;-65
2022/08/09 04:20:29;;;;;;;7.20;4.90;;;;;;;17.33;72.54;102733.06;4950038;28;20098;-65
2022/08/09 04:22:54;;;;;;;6.20;4.80;;;;;;;17.26;73.08;102728.53;4950549;28;20469;-65
2022/08/09 04:25:20;;;;;;;6.38;4.80;;;;;;;17.31;73.22;102733.88;4951076;28;20119;-65
2022/08/09 04:27:45;;;;;;;8.40;4.95;;;;;;;17.26;73.43;102731.13;4953054;28;20051;-66
2022/08/09 04:30:13;;;;;;;8.50;5.30;;;;;;;17.25;73.30;102731.09;4948535;28;20042;-66
2022/08/09 04:32:39;;;;;;;6.93;4.93;;;;;;;17.26;73.25;102738.03;4950118;28;20035;-66
2022/08/09 04:35:07;;;;;;;7.53;4.72;;;;;;;17.24;73.33;102734.53;4950256;28;20035;-64
2022/08/09 04:37:33;;;;;;;6.47;4.75;;;;;;;17.19;73.59;102744.78;4948859;28;20450;-64
2022/08/09 04:39:58;;;;;;;9.52;5.20;;;;;;;17.19;73.55;102743.91;4949671;28;20046;-65
2022/08/09 04:42:28;;;;;;;8.88;5.28;;;;;;;17.21;73.86;102744.81;4948597;28;20107;-65
2022/08/09 04:44:58;;;;;;;5.85;4.63;;;;;;;17.19;73.96;102749.97;4946860;28;20032;-65
2022/08/09 04:47:25;;;;;;;6.47;4.80;;;;;;;17.14;74.19;102742.03;4951535;28;20122;-65
2022/08/09 04:49:51;;;;;;;6.80;5.10;;;;;;;17.21;73.90;102750.88;4950616;28;20081;-64
2022/08/09 04:52:17;;;;;;;8.48;5.43;;;;;;;17.19;74.20;102754.28;4950292;28;20027;-66
2022/08/09 04:54:43;;;;;;;9.18;5.60;;;;;;;17.15;74.39;102753.31;4948960;28;20024;-65
2022/08/09 04:57:09;;;;;;;7.93;5.40;;;;;;;17.13;74.63;102754.97;4948986;28;20035;-65
2022/08/09 04:59:34;;;;;;;7.68;5.03;;;;;;;17.16;74.38;102755.06;4947984;28;20394;-65
2022/08/09 05:02:00;;;;;;;8.13;5.43;;;;;;;17.18;74.50;102757.72;4949247;28;20035;-64
2022/08/09 05:04:26;;;;;;;8.50;5.35;;;;;;;17.19;74.69;102754.28;4952982;28;20031;-65
2022/08/09 05:06:51;;;;;;;7.32;5.45;;;;;;;17.16;74.63;102752.47;4949621;28;20414;-66
2022/08/09 05:09:17;;;;;;;9.85;5.40;;;;;;;17.23;74.73;102758.72;4955790;28;20035;-65
2022/08/09 05:11:42;;;;;;;8.13;5.57;;;;;;;17.28;74.57;102760.63;4950761;28;20031;-65
2022/08/09 05:14:08;;;;;;;8.63;5.90;;;;;;;17.29;74.66;102770.22;4951341;28;20031;-65
2022/08/09 05:16:34;;;;;;;9.35;5.50;;;;;;;17.29;74.99;102765.03;4949023;28;20118;-65
2022/08/09 05:18:59;;;;;;;11.02;5.95;;;;;;;17.33;74.99;102768.59;4944989;29;20440;-66
2022/08/09 05:21:26;;;;;;;8.75;5.68;;;;;;;17.30;75.04;102768.50;4949114;28;20134;-64
2022/08/09 05:23:52;;;;;;;9.25;5.97;;;;;;;17.32;75.09;102766.81;4949191;28;20019;-66
2022/08/09 05:26:17;;;;;;;8.75;6.13;;;;;;;17.37;75.44;102760.06;4962855;28;20019;-65
2022/08/09 05:28:43;;;;;;;10.10;6.05;;;;;;;17.43;75.16;102766.31;4951192;28;20123;-66
2022/08/09 05:31:08;;;;;;;9.50;6.28;;;;;;;17.41;75.25;102772.28;4949945;28;20039;-65
2022/08/09 05:33:34;;;;;;;8.70;5.82;;;;;;;17.43;75.07;102774.13;4951315;28;20091;-65
2022/08/09 05:36:00;;;;;;;13.02;6.22;;;;;;;17.45;75.21;102770.69;4950066;28;20043;-65
2022/08/09 05:38:25;;;;;;;9.18;6.32;;;;;;;17.43;75.41;102775.84;4951191;28;20035;-65
2022/08/09 05:40:51;;;;;;;9.45;6.63;;;;;;;17.41;75.56;102774.88;4949856;28;20042;-65
2022/08/09 05:43:17;;;;;;;8.40;6.20;;;;;;;17.38;75.97;102777.41;4953090;28;20113;-65
2022/08/09 05:45:42;;;;;;;9.65;6.88;;;;;;;17.44;75.95;102777.59;4941084;29;20028;-64
2022/08/09 05:48:07;;;;;;;10.40;6.43;;;;;;;17.37;76.13;102779.13;4940859;28;20509;-64
2022/08/09 05:50:33;;;;;;;9.43;7.10;;;;;;;17.47;76.01;102775.06;4945662;28;20118;-64
2022/08/09 05:52:58;;;;;;;11.80;6.57;;;;;;;17.52;75.85;102783.91;4946558;28;20040;-65
2022/08/09 05:55:23;;;;;;;7.88;6.90;;;;;;;17.54;75.92;102783.97;4948458;28;20059;-66
2022/08/09 05:57:49;;;;;;;12.63;7.90;;;;;;;17.60;75.82;102786.75;4948520;28;20039;-65
2022/08/09 06:00:15;;;;;;;12.98;7.30;;;;;;;17.65;75.83;102787.75;4948447;28;20035;-65
2022/08/09 06:02:41;;;;;;;11.13;7.35;;;;;;;17.66;76.47;102792.13;4947545;28;20405;-66
2022/08/09 06:05:07;;;;;;;12.40;6.90;;;;;;;17.73;75.99;102790.63;4949427;28;20031;-65
2022/08/09 06:07:34;;;;;;;9.45;6.75;;;;;;;17.72;76.41;102788.88;4942259;28;20066;-65
2022/08/09 06:10:00;;;;;;;9.85;6.90;;;;;;;17.72;76.17;102796.69;4947978;28;20036;-65
2022/08/09 06:12:25;;;;;;;10.35;7.20;;;;;;;17.82;76.39;102798.69;4948800;28;20042;-65
2022/08/09 06:14:51;;;;;;;13.82;6.90;;;;;;;17.91;76.33;102798.97;4938089;28;20024;-65
2022/08/09 06:17:16;;;;;;;11.68;7.38;;;;;;;17.98;75.85;102794.81;4947837;28;20050;-65
2022/08/09 06:19:42;;;;;;;9.88;7.13;;;;;;;18.06;75.54;102796.78;4949844;28;20015;-65
2022/08/09 06:22:07;;;;;;;10.15;7.13;;;;;;;18.17;75.23;102797.97;4953599;28;20050;-65
2022/08/09 06:24:32;;;;;;;11.43;7.53;;;;;;;18.22;74.93;102804.19;4945721;28;20420;-66
2022/08/09 06:26:58;;;;;;;13.82;7.47;;;;;;;18.34;75.14;102800.16;4961628;28;20138;-65
2022/08/09 06:29:23;;;;;;;9.80;7.35;;;;;;;18.38;75.00;102802.91;4953124;28;20035;-65
2022/08/09 06:31:49;;;;;;;10.25;7.18;;;;;;;18.42;75.48;102803.84;4946972;28;20565;-65
2022/08/09 06:34:15;;;;;;;9.80;7.28;;;;;;;18.49;74.61;102804.03;4952687;28;20085;-65
2022/08/09 06:36:40;;;;;;;11.57;7.10;;;;;;;18.54;74.14;102798.94;4954000;28;20038;-65
2022/08/09 06:39:09;;;;;;;11.05;6.68;;;;;;;18.63;73.92;102801.81;4942776;28;20020;-65
2022/08/09 06:41:36;;;;;;;9.40;6.38;;;;;;;18.70;73.42;102802.88;4952592;28;20113;-64
2022/08/09 06:44:02;;;;;;;9.23;6.40;;;;;;;18.78;73.12;102805.66;4963025;28;20047;-65
2022/08/09 06:46:29;;;;;;;9.90;6.53;;;;;;;18.85;73.01;102800.63;4948473;28;20051;-66
2022/08/09 06:48:54;;;;;;;9.00;6.63;;;;;;;18.91;73.08;102805.13;4948892;28;20051;-65
2022/08/09 06:51:20;;;;;;;9.52;6.32;;;;;;;19.02;72.67;102804.53;4950687;28;20469;-65
2022/08/09 06:53:45;;;;;;;10.02;6.35;;;;;;;19.18;72.03;102802.31;4948885;28;20042;-66
2022/08/09 06:56:10;;;;;;;9.52;6.68;;;;;;;19.21;72.05;102804.97;4952033;28;20390;-65
2022/08/09 06:58:37;;;;;;;8.48;6.53;;;;;;;19.32;71.56;102807.84;4949413;28;20038;-65
2022/08/09 07:01:02;;;;;;;10.30;6.55;;;;;;;19.41;71.56;102810.63;4945860;28;20490;-65
2022/08/09 07:03:28;;;;;;;12.20;6.78;;;;;;;19.45;71.69;102813.34;4946508;28;20035;-65
2022/08/09 07:05:54;;;;;;;12.20;7.63;;;;;;;19.58;71.08;102822.38;4951987;28;20035;-65
2022/08/09 07:08:19;;;;;;;10.43;7.18;;;;;;;19.66;70.58;102822.56;4945839;28;20028;-65
2022/08/09 07:10:45;;;;;;;12.70;7.18;;;;;;;19.78;70.34;102826.31;4951914;28;20054;-64
2022/08/09 07:13:10;;;;;;;12.50;6.68;;;;;;;19.86;69.93;102831.69;4953073;28;20062;-65
2022/08/09 07:15:36;;;;;;;9.38;6.97;;;;;;;19.93;69.10;102824.84;4952922;28;20046;-65
2022/08/09 07:18:01;;;;;;;9.70;6.43;;;;;;;19.99;68.67;102825.84;4946628;29;20039;-64
2022/08/09 07:20:26;;;;;;;9.35;6.85;;;;;;;20.03;69.14;102816.38;4952271;28;20114;-64
2022/08/09 07:22:52;;;;;;;10.13;6.95;;;;;;;20.15;69.31;102814.00;4951939;28;20389;-65
2022/08/09 07:25:18;;;;;;;10.50;7.28;;;;;;;20.17;68.22;102821.84;4950013;28;20015;-65
2022/08/09 07:27:46;;;;;;;10.90;7.10;;;;;;;20.25;68.34;102823.75;4948733;28;20051;-65
2022/08/09 07:30:12;;;;;;;10.50;6.63;;;;;;;20.37;67.62;102820.50;4950372;28;20039;-67
2022/08/09 07:32:39;;;;;;;9.18;6.57;;;;;;;20.44;68.26;102816.25;4947062;28;20031;-64
2022/08/09 07:35:08;;;;;;;10.30;6.45;;;;;;;20.52;67.60;102812.09;4939480;28;20031;-64
2022/08/09 07:37:34;;;;;;;12.07;7.32;;;;;;;20.57;67.44;102811.34;4951887;28;20023;-64
2022/08/09 07:39:59;;;;;;;8.77;6.00;;;;;;;20.68;67.79;102821.94;4948814;28;20041;-64
2022/08/09 07:42:24;;;;;;;9.50;6.38;;;;;;;20.72;66.70;102826.38;4950594;28;20042;-65
2022/08/09 07:44:50;;;;;;;12.15;6.50;;;;;;;20.80;65.96;102826.50;4955596;28;20039;-65
2022/08/09 07:47:16;;;;;;;11.15;7.07;;;;;;;20.82;65.63;102832.66;4948124;28;20046;-64
2022/08/09 07:49:42;;;;;;;8.73;6.28;;;;;;;20.92;66.41;102821.47;4951857;28;20039;-64
2022/08/09 07:52:08;;;;;;;10.45;6.15;;;;;;;20.96;66.38;102833.75;4951063;28;20088;-64
2022/08/09 07:54:33;;;;;;;8.55;6.47;;;;;;;20.98;65.95;102818.97;4949572;28;20019;-64
2022/08/09 07:56:59;;;;;;;11.68;6.22;;;;;;;21.05;65.27;102838.25;4950508;28;20059;-65
2022/08/09 07:59:24;;;;;;;10.43;6.15;;;;;;;21.07;64.74;102833.94;4951607;28;20414;-64
2022/08/09 08:01:50;;;;;;;12.70;6.40;;;;;;;21.16;64.35;102829.72;4944103;28;20035;-65
2022/08/09 08:04:15;;;;;;;14.57;6.28;;;;;;;21.21;63.97;102828.91;4947518;29;20035;-65
2022/08/09 08:06:41;;;;;;;10.07;5.55;;;;;;;21.27;63.88;102827.28;4949853;28;20030;-65
2022/08/09 08:09:06;;;;;;;11.70;6.13;;;;;;;21.37;64.24;102837.06;4946155;28;20042;-65
2022/08/09 08:11:32;;;;;;;12.55;6.13;;;;;;;21.45;63.87;102836.28;4948992;28;20039;-66
2022/08/09 08:13:57;;;;;;;10.05;6.10;;;;;;;21.45;63.25;102834.53;4945459;28;20023;-65
2022/08/09 08:16:23;;;;;;;8.98;5.38;;;;;;;21.54;63.88;102833.81;4948028;28;20137;-65
2022/08/09 08:18:48;;;;;;;10.38;5.40;;;;;;;21.58;63.48;102832.97;4951720;28;20362;-65
2022/08/09 08:21:13;;;;;;;10.65;5.47;;;;;;;21.65;63.78;102832.19;4948295;28;20119;-65
2022/08/09 08:23:39;;;;;;;9.30;6.40;;;;;;;21.65;62.15;102838.31;4945513;28;20043;-64
2022/08/09 08:26:04;;;;;;;10.23;5.88;;;;;;;21.74;62.29;102832.34;4958034;28;20031;-65
2022/08/09 08:28:30;;;;;;;7.93;5.45;;;;;;;21.73;61.80;102827.09;4947881;28;20531;-66
2022/08/09 08:30:55;;;;;;;10.25;5.13;;;;;;;21.75;61.87;102826.22;4948739;28;20096;-64
2022/08/09 08:33:21;;;;;;;9.32;5.35;;;;;;;21.78;62.62;102814.91;4944360;28;20397;-64
2022/08/09 08:35:46;;;;;;;10.38;5.35;;;;;;;21.85;62.15;102822.00;4947933;28;20110;-65
2022/08/09 08:38:12;;;;;;;8.70;5.15;;;;;;;21.89;62.05;102815.91;4945894;28;20461;-64
2022/08/09 08:40:37;;;;;;;7.10;4.82;;;;;;;21.99;62.26;102825.66;4949124;28;20035;-66
2022/08/09 08:43:04;;;;;;;9.55;5.40;;;;;;;21.95;62.02;102827.34;4951385;28;20038;-65
2022/08/09 08:45:37;;;;;;;8.32;4.55;;;;;;;22.08;61.75;102824.88;4945641;28;20035;-66
2022/08/09 08:48:04;;;;;;;9.25;4.90;;;;;;;22.09;61.81;102827.56;4948470;28;20077;-66
2022/08/09 08:50:30;;;;;;;7.93;4.80;;;;;;;22.11;61.19;102827.56;4952480;28;20031;-65
2022/08/09 08:52:56;;;;;;;9.77;4.63;;;;;;;22.20;60.55;102828.56;4948491;28;20421;-64
2022/08/09 08:55:21;;;;;;;7.05;3.72;;;;;;;22.14;58.88;102830.22;4951385;28;20023;-65
2022/08/09 08:57:48;;;;;;;6.40;3.22;;;;;;;22.26;59.02;102838.22;4952182;28;20517;-65
2022/08/09 09:00:14;;;;;;;7.00;3.10;;;;;;;22.29;59.11;102840.88;4948946;29;20118;-64
2022/08/09 09:02:41;;;;;;;4.97;2.88;;;;;;;22.32;58.00;102837.41;4950014;28;20023;-64
2022/08/09 09:05:11;;;;;;;10.75;4.05;;;;;;;22.39;58.86;102840.13;4950417;28;20023;-64
2022/08/09 09:07:38;;;;;;;6.60;3.90;;;;;;;22.45;58.89;102840.19;4949024;28;20547;-66
2022/08/09 09:10:07;;;;;;;6.93;4.15;;;;;;;22.53;58.43;102836.75;4950273;28;20030;-65
2022/08/09 09:12:34;;;;;;;6.72;3.08;;;;;;;22.57;57.38;102834.19;4950455;28;20023;-65
2022/08/09 09:15:01;;;;;;;6.57;2.90;;;;;;;22.59;57.41;102835.06;4949956;28;20039;-65
2022/08/09 09:17:26;;;;;;;8.10;3.08;;;;;;;22.64;57.61;102843.00;4951132;28;20033;-66
2022/08/09 09:19:52;;;;;;;8.50;2.63;;;;;;;22.72;56.57;102850.06;4951629;28;20035;-65
2022/08/09 09:22:19;;;;;;;4.15;1.92;;;;;;;22.78;56.78;102849.22;4948946;28;20043;-65
2022/08/09 09:24:48;;;;;;;5.55;1.77;;;;;;;22.75;54.89;102851.81;4951562;28;20084;-65
2022/08/09 09:27:26;;;;;;;5.03;1.63;;;;;;;22.84;53.86;102851.03;4958683;28;20051;-65
2022/08/09 09:29:53;;;;;;;5.70;1.90;;;;;;;22.86;53.62;102855.41;4950894;28;20046;-65
2022/08/09 09:32:20;;;;;;;5.57;2.35;;;;;;;22.83;53.86;102852.78;4953195;28;20030;-65
2022/08/09 09:35:07;;;;;;;5.22;1.70;;;;;;;22.94;54.81;102843.28;4951214;28;20388;-64
2022/08/09 09:37:33;;;;;;;3.35;1.50;;;;;;;23.05;54.12;102839.84;4949144;28;20023;-66
2022/08/09 09:39:58;;;;;;;4.43;1.45;;;;;;;23.03;53.21;102839.84;4950362;28;20073;-64
2022/08/09 09:42:26;;;;;;;4.00;1.45;;;;;;;23.09;53.21;102833.75;4947235;28;20113;-65
2022/08/09 09:45:01;;;;;;;5.10;1.50;;;;;;;23.14;53.01;102830.31;4945050;28;20024;-65
2022/08/09 09:47:27;;;;;;;4.18;1.30;;;;;;;23.27;53.01;102839.16;4951034;28;20287;-65
2022/08/09 09:49:54;;;;;;;2.22;1.17;;;;;;;23.33;51.99;102833.94;4951121;28;20019;-65
2022/08/09 09:52:20;;;;;;;3.95;1.40;;;;;;;23.32;48.80;102832.19;4949913;28;20031;-65
2022/08/09 09:54:46;;;;;;;2.95;0.93;;;;;;;23.33;49.92;102839.19;4950426;28;20202;-65
2022/08/09 09:57:18;;;;;;;3.50;1.17;;;;;;;23.42;50.84;102841.88;4951332;28;20496;-65
2022/08/09 09:59:46;;;;;;;3.03;1.42;;;;;;;23.48;51.66;102839.28;4954252;28;20054;-65
2022/08/09 10:02:12;;;;;;;5.90;1.38;;;;;;;23.52;51.40;102834.91;4951547;28;20035;-65
2022/08/09 10:04:38;;;;;;;4.60;1.02;;;;;;;23.53;48.96;102842.78;4953521;28;20069;-64
2022/08/09 10:07:05;;;;;;;3.60;1.25;;;;;;;23.48;47.86;102844.53;4948524;28;20050;-64
2022/08/09 10:09:48;;;;;;;2.40;1.02;;;;;;;23.54;49.47;102844.56;4952677;28;20050;-65
2022/08/09 10:12:26;;;;;;;2.47;1.00;;;;;;;23.61;49.25;102842.88;4951489;29;20035;-64
2022/08/09 10:15:02;;;;;;;1.98;0.85;;;;;;;23.70;49.05;102847.31;4951769;28;20384;-65
2022/08/09 10:17:33;;;;;;;3.00;0.80;;;;;;;23.68;47.34;102842.06;4949195;29;20082;-64
2022/08/09 10:20:00;;;;;;;2.67;0.95;;;;;;;23.74;47.11;102846.47;4953080;28;20027;-65
2022/08/09 10:22:34;;;;;;;3.20;0.82;;;;;;;23.78;47.78;102832.44;4949938;28;20023;-65
2022/08/09 10:25:02;;;;;;;2.05;0.93;;;;;;;23.81;47.64;102833.34;4951657;28;20110;-64
2022/08/09 10:27:30;;;;;;;1.60;0.80;;;;;;;23.91;47.89;102830.78;4954233;28;20438;-64
2022/08/09 10:29:55;;;;;;;2.40;0.80;;;;;;;23.90;46.93;102829.88;4952784;28;20031;-65
2022/08/09 10:32:21;;;;;;;3.83;0.90;;;;;;;23.90;45.77;102829.88;4951212;28;20100;-65
2022/08/09 10:34:47;;;;;;;1.83;0.55;;;;;;;23.93;45.88;102836.91;4949101;28;20032;-66
2022/08/09 10:37:13;;;;;;;2.83;0.90;;;;;;;23.98;45.46;102824.66;4943917;29;20038;-67
2022/08/09 10:39:39;;;;;;;3.22;0.70;;;;;;;24.05;45.87;102827.31;4950585;29;20019;-65
2022/08/09 10:42:05;;;;;;;2.83;0.80;;;;;;;24.07;45.87;102815.03;4951159;28;20367;-65
2022/08/09 10:44:32;;;;;;;2.90;0.70;;;;;;;24.15;45.71;102816.84;4944764;29;20054;-65
2022/08/09 10:47:36;;;;;;;3.55;0.70;;;;;;;24.23;44.55;102820.34;4946949;29;20492;-65
2022/08/09 10:50:16;;;;;;;1.88;0.68;;;;;;;24.22;45.29;102808.09;4952569;28;20023;-65
2022/08/09 10:53:00;;;;;;;2.42;0.82;;;;;;;24.25;45.30;102805.44;4952833;29;20026;-65
2022/08/09 10:55:29;;;;;;;1.13;0.65;;;;;;;24.30;43.56;102817.72;4952696;29;20024;-65
2022/08/09 10:57:55;;;;;;;2.10;0.70;;;;;;;24.31;44.14;102810.72;4953214;28;20080;-65
2022/08/09 11:00:29;;;;;;;1.85;0.77;;;;;;;24.32;44.39;102799.31;4952003;28;20050;-64
2022/08/09 11:02:56;;;;;;;2.05;0.70;;;;;;;24.30;43.23;102801.97;4950845;28;20493;-65
2022/08/09 11:05:23;;;;;;;1.92;0.80;;;;;;;24.41;43.62;102798.50;4951895;28;20035;-65
2022/08/09 11:07:49;;;;;;;2.03;0.70;;;;;;;24.41;43.39;102799.38;4950604;28;20046;-65
2022/08/09 11:10:35;;;;;;;3.95;0.60;;;;;;;24.44;42.91;102804.63;4950085;28;20047;-64
2022/08/09 11:13:14;;;;;;;1.05;0.70;;;;;;;24.40;42.50;102810.78;4950402;28;20035;-65
2022/08/09 11:15:40;;;;;;;2.15;1.17;;;;;;;24.41;42.76;102799.38;4944022;28;20031;-64
2022/08/09 11:18:05;;;;;;;4.20;0.90;;;;;;;24.43;42.98;102802.00;4952501;28;20034;-65
2022/08/09 11:20:46;;;;;;;2.40;0.75;;;;;;;24.58;43.32;102805.53;4961100;28;20344;-65
2022/08/09 11:23:13;;;;;;;2.45;0.80;;;;;;;24.57;43.39;102803.78;4948694;28;20713;-65
2022/08/09 11:25:41;;;;;;;2.88;0.65;;;;;;;24.63;42.25;102807.28;4947516;28;20035;-65
2022/08/09 11:28:25;;;;;;;7.03;0.80;;;;;;;24.66;42.74;102805.53;4949922;29;20101;-65